sensor_id;sensor_type;location;lat;lon;timestamp;P1;durP1;ratioP1;P2;durP2;ratioP2
55025;SDS011;40925;45.666;18.994;2022-12-07T00:01:44;89.93;;;45.17;;
55025;SDS011;40925;45.666;18.994;2022-12-07T00:04:11;90.45;;;42.55;;
55025;SDS011;40925;45.666;18.994;2022-12-07T00:06:42;184.43;;;42.72;;
55025;SDS011;40925;45.666;18.994;2022-12-07T00:09:10;231.60;;;38.72;;
55025;SDS011;40925;45.666;18.994;2022-12-07T00:11:36;253.48;;;39.28;;
55025;SDS011;40925;45.666;18.994;2022-12-07T00:14:03;193.13;;;36.28;;
55025;SDS011;40925;45.666;18.994;2022-12-07T00:16:32;324.15;;;44.58;;
55025;SDS011;40925;45.666;18.994;2022-12-07T00:18:58;364.65;;;47.92;;
55025;SDS011;40925;45.666;18.994;2022-12-07T00:21:28;255.90;;;45.50;;
55025;SDS011;40925;45.666;18.994;2022-12-07T00:23:55;229.05;;;42.55;;
55025;SDS011;40925;45.666;18.994;2022-12-07T00:28:51;166.93;;;43.95;;
55025;SDS011;40925;45.666;18.994;2022-12-07T00:31:18;135.75;;;42.45;;
55025;SDS011;40925;45.666;18.994;2022-12-07T00:33:45;162.68;;;39.25;;
55025;SDS011;40925;45.666;18.994;2022-12-07T00:36:13;178.93;;;38.20;;
55025;SDS011;40925;45.666;18.994;2022-12-07T00:38:39;119.95;;;33.58;;
55025;SDS011;40925;45.666;18.994;2022-12-07T00:41:12;84.65;;;29.20;;
55025;SDS011;40925;45.666;18.994;2022-12-07T00:43:39;76.53;;;26.48;;
55025;SDS011;40925;45.666;18.994;2022-12-07T00:46:05;79.70;;;28.85;;
55025;SDS011;40925;45.666;18.994;2022-12-07T00:48:31;53.70;;;24.20;;
55025;SDS011;40925;45.666;18.994;2022-12-07T00:50:57;55.58;;;27.05;;
55025;SDS011;40925;45.666;18.994;2022-12-07T00:53:24;45.45;;;24.55;;
55025;SDS011;40925;45.666;18.994;2022-12-07T00:55:50;43.50;;;24.30;;
55025;SDS011;40925;45.666;18.994;2022-12-07T00:58:17;42.15;;;23.63;;
55025;SDS011;40925;45.666;18.994;2022-12-07T01:00:43;49.53;;;27.38;;
55025;SDS011;40925;45.666;18.994;2022-12-07T01:03:10;53.83;;;30.85;;
55025;SDS011;40925;45.666;18.994;2022-12-07T01:05:37;53.00;;;28.85;;
55025;SDS011;40925;45.666;18.994;2022-12-07T01:08:03;52.42;;;28.90;;
55025;SDS011;40925;45.666;18.994;2022-12-07T01:10:29;60.55;;;30.48;;
55025;SDS011;40925;45.666;18.994;2022-12-07T01:12:56;59.70;;;30.35;;
55025;SDS011;40925;45.666;18.994;2022-12-07T01:15:23;61.88;;;29.05;;
55025;SDS011;40925;45.666;18.994;2022-12-07T01:17:49;52.67;;;28.42;;
55025;SDS011;40925;45.666;18.994;2022-12-07T01:20:15;81.80;;;34.60;;
55025;SDS011;40925;45.666;18.994;2022-12-07T01:22:42;60.25;;;30.25;;
55025;SDS011;40925;45.666;18.994;2022-12-07T01:25:09;49.75;;;26.85;;
55025;SDS011;40925;45.666;18.994;2022-12-07T01:27:36;44.22;;;25.60;;
55025;SDS011;40925;45.666;18.994;2022-12-07T01:30:03;43.55;;;24.90;;
55025;SDS011;40925;45.666;18.994;2022-12-07T01:32:30;42.22;;;23.48;;
55025;SDS011;40925;45.666;18.994;2022-12-07T01:34:56;43.47;;;23.73;;
55025;SDS011;40925;45.666;18.994;2022-12-07T01:37:22;43.42;;;23.63;;
55025;SDS011;40925;45.666;18.994;2022-12-07T01:39:48;41.88;;;22.83;;
55025;SDS011;40925;45.666;18.994;2022-12-07T01:42:14;38.53;;;22.58;;
55025;SDS011;40925;45.666;18.994;2022-12-07T01:47:46;112.60;;;47.28;;
55025;SDS011;40925;45.666;18.994;2022-12-07T01:50:17;115.10;;;50.40;;
55025;SDS011;40925;45.666;18.994;2022-12-07T01:52:45;85.97;;;40.00;;
55025;SDS011;40925;45.666;18.994;2022-12-07T01:55:14;74.47;;;37.22;;
55025;SDS011;40925;45.666;18.994;2022-12-07T01:57:42;61.92;;;30.45;;
55025;SDS011;40925;45.666;18.994;2022-12-07T02:00:12;64.50;;;32.50;;
55025;SDS011;40925;45.666;18.994;2022-12-07T02:05:41;84.03;;;40.92;;
55025;SDS011;40925;45.666;18.994;2022-12-07T02:08:08;48.33;;;27.45;;
55025;SDS011;40925;45.666;18.994;2022-12-07T02:10:34;43.33;;;24.80;;
55025;SDS011;40925;45.666;18.994;2022-12-07T02:18:29;37.00;;;21.85;;
55025;SDS011;40925;45.666;18.994;2022-12-07T02:21:40;35.35;;;21.17;;
55025;SDS011;40925;45.666;18.994;2022-12-07T02:35:12;38.20;;;23.30;;
55025;SDS011;40925;45.666;18.994;2022-12-07T02:43:17;39.10;;;22.70;;
55025;SDS011;40925;45.666;18.994;2022-12-07T02:45:48;42.40;;;24.60;;
55025;SDS011;40925;45.666;18.994;2022-12-07T02:48:16;44.63;;;23.20;;
55025;SDS011;40925;45.666;18.994;2022-12-07T02:50:44;135.77;;;55.65;;
55025;SDS011;40925;45.666;18.994;2022-12-07T02:55:56;161.90;;;75.82;;
55025;SDS011;40925;45.666;18.994;2022-12-07T03:01:21;49.92;;;27.98;;
55025;SDS011;40925;45.666;18.994;2022-12-07T03:04:05;67.60;;;34.97;;
55025;SDS011;40925;45.666;18.994;2022-12-07T03:06:36;74.97;;;39.05;;
55025;SDS011;40925;45.666;18.994;2022-12-07T03:09:16;67.53;;;36.28;;
55025;SDS011;40925;45.666;18.994;2022-12-07T03:12:03;61.95;;;31.80;;
55025;SDS011;40925;45.666;18.994;2022-12-07T03:14:35;49.90;;;27.95;;
55025;SDS011;40925;45.666;18.994;2022-12-07T03:17:14;46.08;;;27.85;;
55025;SDS011;40925;45.666;18.994;2022-12-07T03:19:44;35.85;;;21.80;;
55025;SDS011;40925;45.666;18.994;2022-12-07T03:22:12;39.75;;;21.10;;
55025;SDS011;40925;45.666;18.994;2022-12-07T03:24:41;41.20;;;23.15;;
55025;SDS011;40925;45.666;18.994;2022-12-07T03:27:31;40.78;;;23.08;;
55025;SDS011;40925;45.666;18.994;2022-12-07T03:30:02;39.67;;;21.23;;
55025;SDS011;40925;45.666;18.994;2022-12-07T03:32:44;34.50;;;20.25;;
55025;SDS011;40925;45.666;18.994;2022-12-07T03:35:40;34.00;;;19.98;;
55025;SDS011;40925;45.666;18.994;2022-12-07T03:43:31;31.27;;;18.27;;
55025;SDS011;40925;45.666;18.994;2022-12-07T03:48:55;39.10;;;23.90;;
55025;SDS011;40925;45.666;18.994;2022-12-07T03:54:00;32.30;;;19.65;;
55025;SDS011;40925;45.666;18.994;2022-12-07T03:56:43;35.33;;;20.70;;
55025;SDS011;40925;45.666;18.994;2022-12-07T03:59:11;34.72;;;20.85;;
55025;SDS011;40925;45.666;18.994;2022-12-07T04:01:40;75.65;;;33.40;;
55025;SDS011;40925;45.666;18.994;2022-12-07T04:04:08;46.67;;;25.58;;
55025;SDS011;40925;45.666;18.994;2022-12-07T04:06:33;57.38;;;28.20;;
55025;SDS011;40925;45.666;18.994;2022-12-07T04:08:59;49.22;;;26.58;;
55025;SDS011;40925;45.666;18.994;2022-12-07T04:11:25;40.35;;;22.08;;
55025;SDS011;40925;45.666;18.994;2022-12-07T04:13:50;33.15;;;19.40;;
55025;SDS011;40925;45.666;18.994;2022-12-07T04:16:34;31.42;;;18.38;;
55025;SDS011;40925;45.666;18.994;2022-12-07T04:19:00;35.80;;;19.50;;
55025;SDS011;40925;45.666;18.994;2022-12-07T04:21:26;34.58;;;19.40;;
55025;SDS011;40925;45.666;18.994;2022-12-07T04:23:51;32.22;;;18.75;;
55025;SDS011;40925;45.666;18.994;2022-12-07T04:26:17;33.05;;;18.60;;
55025;SDS011;40925;45.666;18.994;2022-12-07T04:28:43;31.17;;;18.83;;
55025;SDS011;40925;45.666;18.994;2022-12-07T04:31:08;33.67;;;18.95;;
55025;SDS011;40925;45.666;18.994;2022-12-07T04:33:35;38.42;;;21.58;;
55025;SDS011;40925;45.666;18.994;2022-12-07T04:36:01;34.85;;;20.75;;
55025;SDS011;40925;45.666;18.994;2022-12-07T04:38:27;35.55;;;20.15;;
55025;SDS011;40925;45.666;18.994;2022-12-07T04:40:53;36.95;;;20.30;;
55025;SDS011;40925;45.666;18.994;2022-12-07T04:43:19;38.00;;;21.75;;
55025;SDS011;40925;45.666;18.994;2022-12-07T04:45:47;34.78;;;20.52;;
55025;SDS011;40925;45.666;18.994;2022-12-07T04:48:14;36.22;;;20.13;;
55025;SDS011;40925;45.666;18.994;2022-12-07T04:50:40;35.95;;;20.88;;
55025;SDS011;40925;45.666;18.994;2022-12-07T04:53:05;35.00;;;20.05;;
55025;SDS011;40925;45.666;18.994;2022-12-07T04:55:31;35.50;;;19.38;;
55025;SDS011;40925;45.666;18.994;2022-12-07T04:57:57;34.47;;;19.88;;
55025;SDS011;40925;45.666;18.994;2022-12-07T05:00:22;38.22;;;22.65;;
55025;SDS011;40925;45.666;18.994;2022-12-07T05:02:48;37.60;;;21.52;;
55025;SDS011;40925;45.666;18.994;2022-12-07T05:05:14;39.22;;;22.40;;
55025;SDS011;40925;45.666;18.994;2022-12-07T05:07:39;38.30;;;21.27;;
55025;SDS011;40925;45.666;18.994;2022-12-07T05:10:05;36.92;;;20.65;;
55025;SDS011;40925;45.666;18.994;2022-12-07T05:12:31;40.40;;;21.98;;
55025;SDS011;40925;45.666;18.994;2022-12-07T05:14:57;35.65;;;20.80;;
55025;SDS011;40925;45.666;18.994;2022-12-07T05:17:23;37.88;;;22.10;;
55025;SDS011;40925;45.666;18.994;2022-12-07T05:19:48;37.80;;;21.27;;
55025;SDS011;40925;45.666;18.994;2022-12-07T05:22:14;41.72;;;23.15;;
55025;SDS011;40925;45.666;18.994;2022-12-07T05:24:40;51.03;;;29.25;;
55025;SDS011;40925;45.666;18.994;2022-12-07T05:27:06;43.53;;;25.30;;
55025;SDS011;40925;45.666;18.994;2022-12-07T05:29:31;46.65;;;25.15;;
55025;SDS011;40925;45.666;18.994;2022-12-07T05:31:57;44.88;;;25.73;;
55025;SDS011;40925;45.666;18.994;2022-12-07T05:34:23;38.80;;;23.27;;
55025;SDS011;40925;45.666;18.994;2022-12-07T05:36:48;41.97;;;23.60;;
55025;SDS011;40925;45.666;18.994;2022-12-07T05:39:15;57.58;;;29.67;;
55025;SDS011;40925;45.666;18.994;2022-12-07T05:41:41;67.15;;;33.47;;
55025;SDS011;40925;45.666;18.994;2022-12-07T05:44:25;58.17;;;29.80;;
55025;SDS011;40925;45.666;18.994;2022-12-07T05:46:51;59.97;;;27.25;;
55025;SDS011;40925;45.666;18.994;2022-12-07T05:49:16;68.57;;;32.42;;
55025;SDS011;40925;45.666;18.994;2022-12-07T05:51:42;62.80;;;29.40;;
55025;SDS011;40925;45.666;18.994;2022-12-07T05:54:08;82.28;;;36.35;;
55025;SDS011;40925;45.666;18.994;2022-12-07T05:56:34;71.55;;;32.13;;
55025;SDS011;40925;45.666;18.994;2022-12-07T05:58:59;69.43;;;31.95;;
55025;SDS011;40925;45.666;18.994;2022-12-07T06:01:44;60.55;;;28.83;;
55025;SDS011;40925;45.666;18.994;2022-12-07T06:04:09;47.72;;;25.00;;
55025;SDS011;40925;45.666;18.994;2022-12-07T06:06:35;41.03;;;24.50;;
55025;SDS011;40925;45.666;18.994;2022-12-07T06:09:02;39.33;;;22.23;;
55025;SDS011;40925;45.666;18.994;2022-12-07T06:11:28;41.47;;;24.05;;
55025;SDS011;40925;45.666;18.994;2022-12-07T06:14:12;50.15;;;26.40;;
55025;SDS011;40925;45.666;18.994;2022-12-07T06:16:38;48.83;;;26.50;;
55025;SDS011;40925;45.666;18.994;2022-12-07T06:19:03;51.75;;;28.00;;
55025;SDS011;40925;45.666;18.994;2022-12-07T06:21:29;50.88;;;27.08;;
55025;SDS011;40925;45.666;18.994;2022-12-07T06:23:55;51.58;;;28.10;;
55025;SDS011;40925;45.666;18.994;2022-12-07T06:26:21;51.78;;;28.40;;
55025;SDS011;40925;45.666;18.994;2022-12-07T06:28:47;61.65;;;30.83;;
55025;SDS011;40925;45.666;18.994;2022-12-07T06:31:12;52.78;;;27.75;;
55025;SDS011;40925;45.666;18.994;2022-12-07T06:33:38;51.63;;;28.33;;
55025;SDS011;40925;45.666;18.994;2022-12-07T06:36:04;51.10;;;28.60;;
55025;SDS011;40925;45.666;18.994;2022-12-07T06:38:30;50.20;;;27.58;;
55025;SDS011;40925;45.666;18.994;2022-12-07T06:40:55;50.47;;;27.88;;
55025;SDS011;40925;45.666;18.994;2022-12-07T06:43:21;54.53;;;28.77;;
55025;SDS011;40925;45.666;18.994;2022-12-07T06:45:47;53.78;;;29.17;;
55025;SDS011;40925;45.666;18.994;2022-12-07T06:48:12;57.70;;;28.40;;
55025;SDS011;40925;45.666;18.994;2022-12-07T06:50:39;55.83;;;30.05;;
55025;SDS011;40925;45.666;18.994;2022-12-07T06:53:04;57.17;;;28.98;;
55025;SDS011;40925;45.666;18.994;2022-12-07T06:55:30;55.88;;;29.75;;
55025;SDS011;40925;45.666;18.994;2022-12-07T06:57:56;59.60;;;30.45;;
55025;SDS011;40925;45.666;18.994;2022-12-07T07:00:22;63.85;;;31.38;;
55025;SDS011;40925;45.666;18.994;2022-12-07T07:02:48;64.05;;;32.95;;
55025;SDS011;40925;45.666;18.994;2022-12-07T07:05:14;69.93;;;32.85;;
55025;SDS011;40925;45.666;18.994;2022-12-07T07:07:41;66.68;;;33.75;;
55025;SDS011;40925;45.666;18.994;2022-12-07T07:10:07;71.38;;;34.70;;
55025;SDS011;40925;45.666;18.994;2022-12-07T07:12:33;63.38;;;31.50;;
55025;SDS011;40925;45.666;18.994;2022-12-07T07:14:58;66.32;;;33.30;;
55025;SDS011;40925;45.666;18.994;2022-12-07T07:17:24;88.95;;;39.47;;
55025;SDS011;40925;45.666;18.994;2022-12-07T07:19:50;59.85;;;30.92;;
55025;SDS011;40925;45.666;18.994;2022-12-07T07:22:15;54.33;;;28.70;;
55025;SDS011;40925;45.666;18.994;2022-12-07T07:24:41;57.20;;;30.38;;
55025;SDS011;40925;45.666;18.994;2022-12-07T07:27:07;53.97;;;28.67;;
55025;SDS011;40925;45.666;18.994;2022-12-07T07:29:32;82.05;;;44.65;;
55025;SDS011;40925;45.666;18.994;2022-12-07T07:31:59;84.53;;;40.88;;
55025;SDS011;40925;45.666;18.994;2022-12-07T07:34:25;54.92;;;29.95;;
55025;SDS011;40925;45.666;18.994;2022-12-07T07:36:50;48.60;;;27.73;;
55025;SDS011;40925;45.666;18.994;2022-12-07T07:39:16;53.20;;;26.98;;
55025;SDS011;40925;45.666;18.994;2022-12-07T07:41:42;45.67;;;24.02;;
55025;SDS011;40925;45.666;18.994;2022-12-07T07:44:07;45.08;;;24.75;;
55025;SDS011;40925;45.666;18.994;2022-12-07T07:46:34;81.25;;;38.05;;
55025;SDS011;40925;45.666;18.994;2022-12-07T07:49:00;85.70;;;38.13;;
55025;SDS011;40925;45.666;18.994;2022-12-07T07:51:25;103.32;;;44.33;;
55025;SDS011;40925;45.666;18.994;2022-12-07T07:53:51;86.03;;;41.38;;
55025;SDS011;40925;45.666;18.994;2022-12-07T07:56:16;52.53;;;28.73;;
55025;SDS011;40925;45.666;18.994;2022-12-07T07:58:42;52.28;;;30.02;;
55025;SDS011;40925;45.666;18.994;2022-12-07T08:01:08;115.97;;;51.90;;
55025;SDS011;40925;45.666;18.994;2022-12-07T08:03:34;89.80;;;41.45;;
55025;SDS011;40925;45.666;18.994;2022-12-07T08:06:01;84.72;;;42.03;;
55025;SDS011;40925;45.666;18.994;2022-12-07T08:08:27;61.13;;;34.88;;
55025;SDS011;40925;45.666;18.994;2022-12-07T08:10:53;56.40;;;32.40;;
55025;SDS011;40925;45.666;18.994;2022-12-07T08:13:19;60.35;;;35.40;;
55025;SDS011;40925;45.666;18.994;2022-12-07T08:15:46;61.92;;;36.47;;
55025;SDS011;40925;45.666;18.994;2022-12-07T08:18:13;64.85;;;37.60;;
55025;SDS011;40925;45.666;18.994;2022-12-07T08:20:40;65.25;;;37.70;;
55025;SDS011;40925;45.666;18.994;2022-12-07T08:23:06;57.17;;;34.92;;
55025;SDS011;40925;45.666;18.994;2022-12-07T08:25:33;101.55;;;47.15;;
55025;SDS011;40925;45.666;18.994;2022-12-07T08:28:00;122.15;;;47.83;;
55025;SDS011;40925;45.666;18.994;2022-12-07T08:30:27;108.75;;;43.55;;
55025;SDS011;40925;45.666;18.994;2022-12-07T08:32:53;53.97;;;31.73;;
55025;SDS011;40925;45.666;18.994;2022-12-07T08:35:19;45.13;;;27.77;;
55025;SDS011;40925;45.666;18.994;2022-12-07T08:37:44;49.22;;;29.45;;
55025;SDS011;40925;45.666;18.994;2022-12-07T08:40:11;48.40;;;28.30;;
55025;SDS011;40925;45.666;18.994;2022-12-07T08:42:42;47.08;;;26.25;;
55025;SDS011;40925;45.666;18.994;2022-12-07T08:45:10;65.28;;;35.25;;
55025;SDS011;40925;45.666;18.994;2022-12-07T08:47:39;80.50;;;40.40;;
55025;SDS011;40925;45.666;18.994;2022-12-07T08:50:08;97.97;;;48.10;;
55025;SDS011;40925;45.666;18.994;2022-12-07T08:52:35;132.68;;;59.67;;
55025;SDS011;40925;45.666;18.994;2022-12-07T08:55:02;78.00;;;39.83;;
55025;SDS011;40925;45.666;18.994;2022-12-07T08:57:29;76.32;;;41.22;;
55025;SDS011;40925;45.666;18.994;2022-12-07T08:59:57;53.53;;;30.75;;
55025;SDS011;40925;45.666;18.994;2022-12-07T09:02:23;50.28;;;28.27;;
55025;SDS011;40925;45.666;18.994;2022-12-07T09:04:49;69.05;;;37.22;;
55025;SDS011;40925;45.666;18.994;2022-12-07T09:07:14;83.80;;;43.25;;
55025;SDS011;40925;45.666;18.994;2022-12-07T09:09:41;81.45;;;38.38;;
55025;SDS011;40925;45.666;18.994;2022-12-07T09:12:07;105.70;;;41.75;;
55025;SDS011;40925;45.666;18.994;2022-12-07T09:14:33;125.30;;;41.00;;
55025;SDS011;40925;45.666;18.994;2022-12-07T09:17:08;109.45;;;41.08;;
55025;SDS011;40925;45.666;18.994;2022-12-07T09:19:36;108.28;;;42.85;;
55025;SDS011;40925;45.666;18.994;2022-12-07T09:22:02;131.50;;;51.72;;
55025;SDS011;40925;45.666;18.994;2022-12-07T09:24:29;103.15;;;42.65;;
55025;SDS011;40925;45.666;18.994;2022-12-07T09:26:56;161.25;;;57.17;;
55025;SDS011;40925;45.666;18.994;2022-12-07T09:29:23;136.68;;;49.40;;
55025;SDS011;40925;45.666;18.994;2022-12-07T09:31:49;126.28;;;45.25;;
55025;SDS011;40925;45.666;18.994;2022-12-07T09:34:14;140.20;;;48.65;;
55025;SDS011;40925;45.666;18.994;2022-12-07T09:36:40;133.07;;;45.20;;
55025;SDS011;40925;45.666;18.994;2022-12-07T09:39:07;138.98;;;44.92;;
55025;SDS011;40925;45.666;18.994;2022-12-07T09:41:33;155.60;;;48.13;;
55025;SDS011;40925;45.666;18.994;2022-12-07T09:44:05;141.73;;;45.03;;
55025;SDS011;40925;45.666;18.994;2022-12-07T09:46:36;170.13;;;58.53;;
55025;SDS011;40925;45.666;18.994;2022-12-07T09:49:03;148.45;;;55.38;;
55025;SDS011;40925;45.666;18.994;2022-12-07T09:51:33;126.05;;;46.63;;
55025;SDS011;40925;45.666;18.994;2022-12-07T09:53:59;145.80;;;49.55;;
55025;SDS011;40925;45.666;18.994;2022-12-07T09:56:28;166.30;;;56.33;;
55025;SDS011;40925;45.666;18.994;2022-12-07T09:58:59;151.15;;;51.55;;
55025;SDS011;40925;45.666;18.994;2022-12-07T10:01:27;162.82;;;55.38;;
55025;SDS011;40925;45.666;18.994;2022-12-07T10:04:09;142.85;;;52.80;;
55025;SDS011;40925;45.666;18.994;2022-12-07T10:06:37;140.52;;;48.25;;
55025;SDS011;40925;45.666;18.994;2022-12-07T10:09:15;146.45;;;47.30;;
55025;SDS011;40925;45.666;18.994;2022-12-07T10:14:28;82.25;;;36.25;;
55025;SDS011;40925;45.666;18.994;2022-12-07T10:16:55;80.38;;;39.35;;
55025;SDS011;40925;45.666;18.994;2022-12-07T10:22:00;108.95;;;49.97;;
55025;SDS011;40925;45.666;18.994;2022-12-07T10:24:28;102.75;;;45.90;;
55025;SDS011;40925;45.666;18.994;2022-12-07T10:26:55;78.05;;;36.80;;
55025;SDS011;40925;45.666;18.994;2022-12-07T10:34:41;75.65;;;33.15;;
55025;SDS011;40925;45.666;18.994;2022-12-07T10:42:17;50.17;;;27.70;;
55025;SDS011;40925;45.666;18.994;2022-12-07T10:44:45;43.60;;;25.00;;
55025;SDS011;40925;45.666;18.994;2022-12-07T10:52:45;67.45;;;32.90;;
55025;SDS011;40925;45.666;18.994;2022-12-07T11:04:14;52.55;;;28.85;;
55025;SDS011;40925;45.666;18.994;2022-12-07T11:07:14;84.25;;;44.20;;
55025;SDS011;40925;45.666;18.994;2022-12-07T11:23:29;40.60;;;25.40;;
55025;SDS011;40925;45.666;18.994;2022-12-07T11:26:06;35.75;;;23.77;;
55025;SDS011;40925;45.666;18.994;2022-12-07T11:37:20;34.55;;;21.73;;
55025;SDS011;40925;45.666;18.994;2022-12-07T11:39:51;43.08;;;25.52;;
55025;SDS011;40925;45.666;18.994;2022-12-07T11:42:27;43.45;;;27.27;;
55025;SDS011;40925;45.666;18.994;2022-12-07T11:47:40;51.95;;;28.92;;
55025;SDS011;40925;45.666;18.994;2022-12-07T11:53:03;41.10;;;23.33;;
55025;SDS011;40925;45.666;18.994;2022-12-07T12:03:52;35.47;;;22.20;;
55025;SDS011;40925;45.666;18.994;2022-12-07T12:06:23;30.35;;;21.42;;
55025;SDS011;40925;45.666;18.994;2022-12-07T12:19:41;34.22;;;21.65;;
55025;SDS011;40925;45.666;18.994;2022-12-07T12:22:26;32.75;;;22.05;;
55025;SDS011;40925;45.666;18.994;2022-12-07T12:25:24;36.72;;;23.40;;
55025;SDS011;40925;45.666;18.994;2022-12-07T12:28:00;39.60;;;24.25;;
55025;SDS011;40925;45.666;18.994;2022-12-07T12:33:04;38.65;;;24.98;;
55025;SDS011;40925;45.666;18.994;2022-12-07T12:46:58;60.47;;;35.28;;
55025;SDS011;40925;45.666;18.994;2022-12-07T12:54:40;63.25;;;37.47;;
55025;SDS011;40925;45.666;18.994;2022-12-07T12:57:34;57.88;;;35.50;;
55025;SDS011;40925;45.666;18.994;2022-12-07T13:00:02;51.17;;;32.10;;
55025;SDS011;40925;45.666;18.994;2022-12-07T13:05:23;46.25;;;30.15;;
55025;SDS011;40925;45.666;18.994;2022-12-07T13:07:54;42.72;;;29.25;;
55025;SDS011;40925;45.666;18.994;2022-12-07T13:15:40;47.92;;;30.08;;
55025;SDS011;40925;45.666;18.994;2022-12-07T13:23:30;49.88;;;32.72;;
55025;SDS011;40925;45.666;18.994;2022-12-07T13:26:18;42.20;;;27.88;;
55025;SDS011;40925;45.666;18.994;2022-12-07T13:28:46;42.08;;;28.60;;
55025;SDS011;40925;45.666;18.994;2022-12-07T13:31:15;44.08;;;28.40;;
55025;SDS011;40925;45.666;18.994;2022-12-07T13:33:47;37.13;;;24.42;;
55025;SDS011;40925;45.666;18.994;2022-12-07T13:38:49;43.47;;;27.80;;
55025;SDS011;40925;45.666;18.994;2022-12-07T13:41:27;46.03;;;30.48;;
55025;SDS011;40925;45.666;18.994;2022-12-07T13:43:59;40.00;;;26.05;;
55025;SDS011;40925;45.666;18.994;2022-12-07T13:46:35;42.17;;;25.77;;
55025;SDS011;40925;45.666;18.994;2022-12-07T13:49:17;48.30;;;28.10;;
55025;SDS011;40925;45.666;18.994;2022-12-07T13:51:43;39.50;;;25.30;;
55025;SDS011;40925;45.666;18.994;2022-12-07T13:54:12;46.40;;;28.15;;
55025;SDS011;40925;45.666;18.994;2022-12-07T13:56:41;55.40;;;31.08;;
55025;SDS011;40925;45.666;18.994;2022-12-07T13:59:20;75.72;;;39.55;;
55025;SDS011;40925;45.666;18.994;2022-12-07T14:01:47;105.57;;;52.65;;
55025;SDS011;40925;45.666;18.994;2022-12-07T14:04:31;136.60;;;64.13;;
55025;SDS011;40925;45.666;18.994;2022-12-07T14:06:59;117.45;;;54.88;;
55025;SDS011;40925;45.666;18.994;2022-12-07T14:09:27;73.10;;;40.95;;
55025;SDS011;40925;45.666;18.994;2022-12-07T14:11:54;97.65;;;50.08;;
55025;SDS011;40925;45.666;18.994;2022-12-07T14:14:30;82.93;;;42.80;;
55025;SDS011;40925;45.666;18.994;2022-12-07T14:16:58;59.95;;;34.28;;
55025;SDS011;40925;45.666;18.994;2022-12-07T14:19:41;47.75;;;27.58;;
55025;SDS011;40925;45.666;18.994;2022-12-07T14:22:08;55.05;;;33.30;;
55025;SDS011;40925;45.666;18.994;2022-12-07T14:24:43;74.10;;;42.58;;
55025;SDS011;40925;45.666;18.994;2022-12-07T14:27:16;80.72;;;47.05;;
55025;SDS011;40925;45.666;18.994;2022-12-07T14:29:43;66.32;;;37.03;;
55025;SDS011;40925;45.666;18.994;2022-12-07T14:32:23;74.90;;;41.10;;
55025;SDS011;40925;45.666;18.994;2022-12-07T14:34:54;61.83;;;33.00;;
55025;SDS011;40925;45.666;18.994;2022-12-07T14:37:21;83.63;;;44.65;;
55025;SDS011;40925;45.666;18.994;2022-12-07T14:39:46;70.43;;;40.53;;
55025;SDS011;40925;45.666;18.994;2022-12-07T14:42:12;66.40;;;37.08;;
55025;SDS011;40925;45.666;18.994;2022-12-07T14:44:38;50.17;;;29.60;;
55025;SDS011;40925;45.666;18.994;2022-12-07T14:47:04;64.22;;;35.75;;
55025;SDS011;40925;45.666;18.994;2022-12-07T14:49:29;217.80;;;98.78;;
55025;SDS011;40925;45.666;18.994;2022-12-07T14:51:55;66.20;;;35.30;;
55025;SDS011;40925;45.666;18.994;2022-12-07T14:54:21;118.25;;;64.60;;
55025;SDS011;40925;45.666;18.994;2022-12-07T14:56:52;126.85;;;71.75;;
55025;SDS011;40925;45.666;18.994;2022-12-07T14:59:18;75.97;;;47.25;;
55025;SDS011;40925;45.666;18.994;2022-12-07T15:01:44;75.03;;;47.13;;
55025;SDS011;40925;45.666;18.994;2022-12-07T15:04:10;68.60;;;40.53;;
55025;SDS011;40925;45.666;18.994;2022-12-07T15:06:35;99.13;;;50.15;;
55025;SDS011;40925;45.666;18.994;2022-12-07T15:09:02;184.70;;;75.05;;
55025;SDS011;40925;45.666;18.994;2022-12-07T15:11:27;222.27;;;85.63;;
55025;SDS011;40925;45.666;18.994;2022-12-07T15:13:53;106.20;;;44.33;;
55025;SDS011;40925;45.666;18.994;2022-12-07T15:16:37;35.72;;;21.58;;
55025;SDS011;40925;45.666;18.994;2022-12-07T15:19:11;41.05;;;23.67;;
55025;SDS011;40925;45.666;18.994;2022-12-07T15:21:56;118.32;;;49.20;;
55025;SDS011;40925;45.666;18.994;2022-12-07T15:24:23;68.40;;;35.42;;
55025;SDS011;40925;45.666;18.994;2022-12-07T15:26:52;73.95;;;36.00;;
55025;SDS011;40925;45.666;18.994;2022-12-07T15:29:18;69.97;;;37.33;;
55025;SDS011;40925;45.666;18.994;2022-12-07T15:31:43;115.75;;;58.28;;
55025;SDS011;40925;45.666;18.994;2022-12-07T15:34:10;142.00;;;70.38;;
55025;SDS011;40925;45.666;18.994;2022-12-07T15:36:36;225.45;;;102.53;;
55025;SDS011;40925;45.666;18.994;2022-12-07T15:39:02;121.63;;;62.45;;
55025;SDS011;40925;45.666;18.994;2022-12-07T15:41:28;103.50;;;54.25;;
55025;SDS011;40925;45.666;18.994;2022-12-07T15:43:54;66.43;;;38.47;;
55025;SDS011;40925;45.666;18.994;2022-12-07T15:46:39;69.95;;;38.47;;
55025;SDS011;40925;45.666;18.994;2022-12-07T15:49:15;71.75;;;39.75;;
55025;SDS011;40925;45.666;18.994;2022-12-07T15:51:43;79.82;;;42.75;;
55025;SDS011;40925;45.666;18.994;2022-12-07T15:54:11;108.05;;;55.83;;
55025;SDS011;40925;45.666;18.994;2022-12-07T15:56:41;90.45;;;48.35;;
55025;SDS011;40925;45.666;18.994;2022-12-07T15:59:06;120.45;;;60.75;;
55025;SDS011;40925;45.666;18.994;2022-12-07T16:01:35;153.88;;;77.53;;
55025;SDS011;40925;45.666;18.994;2022-12-07T16:04:04;114.38;;;59.10;;
55025;SDS011;40925;45.666;18.994;2022-12-07T16:06:29;101.28;;;54.28;;
55025;SDS011;40925;45.666;18.994;2022-12-07T16:08:55;120.82;;;65.43;;
55025;SDS011;40925;45.666;18.994;2022-12-07T16:11:21;137.80;;;77.15;;
55025;SDS011;40925;45.666;18.994;2022-12-07T16:13:47;143.43;;;79.43;;
55025;SDS011;40925;45.666;18.994;2022-12-07T16:16:14;107.88;;;56.15;;
55025;SDS011;40925;45.666;18.994;2022-12-07T16:18:44;93.35;;;49.45;;
55025;SDS011;40925;45.666;18.994;2022-12-07T16:21:11;94.55;;;47.47;;
55025;SDS011;40925;45.666;18.994;2022-12-07T16:23:38;93.05;;;50.15;;
55025;SDS011;40925;45.666;18.994;2022-12-07T16:26:11;82.95;;;47.80;;
55025;SDS011;40925;45.666;18.994;2022-12-07T16:28:39;73.90;;;43.08;;
55025;SDS011;40925;45.666;18.994;2022-12-07T16:31:07;68.68;;;41.45;;
55025;SDS011;40925;45.666;18.994;2022-12-07T16:33:38;60.55;;;37.75;;
55025;SDS011;40925;45.666;18.994;2022-12-07T16:36:05;58.28;;;35.88;;
55025;SDS011;40925;45.666;18.994;2022-12-07T16:38:32;52.38;;;32.92;;
55025;SDS011;40925;45.666;18.994;2022-12-07T16:40:58;81.13;;;44.05;;
55025;SDS011;40925;45.666;18.994;2022-12-07T16:43:23;112.10;;;58.33;;
55025;SDS011;40925;45.666;18.994;2022-12-07T16:45:49;88.03;;;47.17;;
55025;SDS011;40925;45.666;18.994;2022-12-07T16:48:15;76.63;;;42.28;;
55025;SDS011;40925;45.666;18.994;2022-12-07T16:50:42;138.75;;;65.65;;
55025;SDS011;40925;45.666;18.994;2022-12-07T16:53:11;179.88;;;78.05;;
55025;SDS011;40925;45.666;18.994;2022-12-07T16:55:39;188.45;;;80.22;;